Terminal Aerodrome Forecast
Issued by NWS

Home | Current Version | Previous Version | Text Only | Print | Product List | Glossary On
Versions: 1 2 3 4 5 6 7 8 9 10 11 12 13 14 15
000
FTAK31 PANC 251727
TAFADU
TAF
PADU 251727Z 2518/2618 30008KT P6SM -SHRA SCT006 OVC022
     FM260200 30011KT 5SM -RA BKN012 OVC020
     FM261000 34010KT P6SM -SHRA SCT012 OVC025
     FM261600 32012KT 5SM -RA BKN012 OVC020=

USA.gov is the U.S. government's official web portal to all federal, state and local government web resources and services.